sensor_id;sensor_type;location;lat;lon;timestamp;P1;durP1;ratioP1;P2;durP2;ratioP2
6533;SDS011;3300;42.698;23.332;2023-08-08T00:00:19;3.90;;;3.20;;
6533;SDS011;3300;42.698;23.332;2023-08-08T00:02:47;3.40;;;2.97;;
6533;SDS011;3300;42.698;23.332;2023-08-08T00:05:13;3.57;;;3.27;;
6533;SDS011;3300;42.698;23.332;2023-08-08T00:07:41;3.30;;;3.00;;
6533;SDS011;3300;42.698;23.332;2023-08-08T00:10:08;3.63;;;3.33;;
6533;SDS011;3300;42.698;23.332;2023-08-08T00:12:35;3.70;;;3.30;;
6533;SDS011;3300;42.698;23.332;2023-08-08T00:15:01;3.57;;;3.27;;
6533;SDS011;3300;42.698;23.332;2023-08-08T00:17:28;3.30;;;3.00;;
6533;SDS011;3300;42.698;23.332;2023-08-08T00:19:56;3.40;;;3.10;;
6533;SDS011;3300;42.698;23.332;2023-08-08T00:22:23;3.50;;;3.20;;
6533;SDS011;3300;42.698;23.332;2023-08-08T00:24:50;3.33;;;3.03;;
6533;SDS011;3300;42.698;23.332;2023-08-08T00:27:16;3.40;;;3.10;;
6533;SDS011;3300;42.698;23.332;2023-08-08T00:29:43;3.30;;;3.00;;
6533;SDS011;3300;42.698;23.332;2023-08-08T00:32:11;3.50;;;3.20;;
6533;SDS011;3300;42.698;23.332;2023-08-08T00:34:39;3.20;;;2.93;;
6533;SDS011;3300;42.698;23.332;2023-08-08T00:37:07;3.33;;;3.03;;
6533;SDS011;3300;42.698;23.332;2023-08-08T00:39:33;3.47;;;3.17;;
6533;SDS011;3300;42.698;23.332;2023-08-08T00:42:00;3.50;;;3.20;;
6533;SDS011;3300;42.698;23.332;2023-08-08T00:44:27;3.73;;;3.40;;
6533;SDS011;3300;42.698;23.332;2023-08-08T00:46:53;3.20;;;2.90;;
6533;SDS011;3300;42.698;23.332;2023-08-08T00:49:20;3.40;;;3.10;;
6533;SDS011;3300;42.698;23.332;2023-08-08T00:51:48;3.20;;;2.90;;
6533;SDS011;3300;42.698;23.332;2023-08-08T00:54:16;3.33;;;3.03;;
6533;SDS011;3300;42.698;23.332;2023-08-08T00:56:42;3.30;;;2.90;;
6533;SDS011;3300;42.698;23.332;2023-08-08T00:59:09;3.30;;;3.00;;
6533;SDS011;3300;42.698;23.332;2023-08-08T01:01:40;3.37;;;3.07;;
6533;SDS011;3300;42.698;23.332;2023-08-08T01:04:06;3.30;;;3.00;;
6533;SDS011;3300;42.698;23.332;2023-08-08T01:06:35;3.37;;;3.07;;
6533;SDS011;3300;42.698;23.332;2023-08-08T01:09:07;3.20;;;2.90;;
6533;SDS011;3300;42.698;23.332;2023-08-08T01:11:41;3.30;;;3.00;;
6533;SDS011;3300;42.698;23.332;2023-08-08T01:14:08;3.23;;;2.93;;
6533;SDS011;3300;42.698;23.332;2023-08-08T01:16:37;3.40;;;3.10;;
6533;SDS011;3300;42.698;23.332;2023-08-08T01:19:04;3.30;;;3.00;;
6533;SDS011;3300;42.698;23.332;2023-08-08T01:21:33;3.30;;;3.00;;
6533;SDS011;3300;42.698;23.332;2023-08-08T01:24:15;3.20;;;2.90;;
6533;SDS011;3300;42.698;23.332;2023-08-08T01:26:44;3.80;;;3.40;;
6533;SDS011;3300;42.698;23.332;2023-08-08T01:29:12;3.03;;;2.73;;
6533;SDS011;3300;42.698;23.332;2023-08-08T01:31:38;3.50;;;3.00;;
6533;SDS011;3300;42.698;23.332;2023-08-08T01:34:05;3.30;;;3.00;;
6533;SDS011;3300;42.698;23.332;2023-08-08T01:36:34;3.07;;;2.77;;
6533;SDS011;3300;42.698;23.332;2023-08-08T01:39:09;3.10;;;2.90;;
6533;SDS011;3300;42.698;23.332;2023-08-08T01:41:41;3.37;;;3.07;;
6533;SDS011;3300;42.698;23.332;2023-08-08T01:44:12;3.30;;;3.00;;
6533;SDS011;3300;42.698;23.332;2023-08-08T01:46:39;3.23;;;2.93;;
6533;SDS011;3300;42.698;23.332;2023-08-08T01:49:06;3.43;;;3.00;;
6533;SDS011;3300;42.698;23.332;2023-08-08T01:51:33;3.20;;;2.90;;
6533;SDS011;3300;42.698;23.332;2023-08-08T01:53:59;3.00;;;2.80;;
6533;SDS011;3300;42.698;23.332;2023-08-08T01:56:26;3.43;;;3.13;;
6533;SDS011;3300;42.698;23.332;2023-08-08T01:58:54;3.20;;;2.90;;
6533;SDS011;3300;42.698;23.332;2023-08-08T02:01:21;3.10;;;2.80;;
6533;SDS011;3300;42.698;23.332;2023-08-08T02:03:48;3.50;;;3.10;;
6533;SDS011;3300;42.698;23.332;2023-08-08T02:06:15;2.93;;;2.73;;
6533;SDS011;3300;42.698;23.332;2023-08-08T02:08:41;3.30;;;3.00;;
6533;SDS011;3300;42.698;23.332;2023-08-08T02:11:08;2.80;;;2.50;;
6533;SDS011;3300;42.698;23.332;2023-08-08T02:13:35;3.30;;;3.00;;
6533;SDS011;3300;42.698;23.332;2023-08-08T02:16:03;3.17;;;2.70;;
6533;SDS011;3300;42.698;23.332;2023-08-08T02:18:30;2.90;;;2.63;;
6533;SDS011;3300;42.698;23.332;2023-08-08T02:20:56;4.03;;;3.03;;
6533;SDS011;3300;42.698;23.332;2023-08-08T02:23:23;3.00;;;2.73;;
6533;SDS011;3300;42.698;23.332;2023-08-08T02:25:51;2.80;;;2.60;;
6533;SDS011;3300;42.698;23.332;2023-08-08T02:28:18;3.40;;;3.10;;
6533;SDS011;3300;42.698;23.332;2023-08-08T02:30:45;2.97;;;2.73;;
6533;SDS011;3300;42.698;23.332;2023-08-08T02:33:13;3.20;;;2.90;;
6533;SDS011;3300;42.698;23.332;2023-08-08T02:35:39;3.07;;;2.77;;
6533;SDS011;3300;42.698;23.332;2023-08-08T02:38:06;2.93;;;2.70;;
6533;SDS011;3300;42.698;23.332;2023-08-08T02:40:33;2.87;;;2.67;;
6533;SDS011;3300;42.698;23.332;2023-08-08T02:43:00;3.20;;;2.90;;
6533;SDS011;3300;42.698;23.332;2023-08-08T02:45:26;3.10;;;2.80;;
6533;SDS011;3300;42.698;23.332;2023-08-08T02:47:53;3.07;;;2.77;;
6533;SDS011;3300;42.698;23.332;2023-08-08T02:50:21;2.70;;;2.50;;
6533;SDS011;3300;42.698;23.332;2023-08-08T02:52:48;3.00;;;2.70;;
6533;SDS011;3300;42.698;23.332;2023-08-08T02:55:16;2.77;;;2.50;;
6533;SDS011;3300;42.698;23.332;2023-08-08T02:57:43;3.00;;;2.57;;
6533;SDS011;3300;42.698;23.332;2023-08-08T03:00:10;2.80;;;2.60;;
6533;SDS011;3300;42.698;23.332;2023-08-08T03:02:38;2.67;;;2.47;;
6533;SDS011;3300;42.698;23.332;2023-08-08T03:05:05;3.03;;;2.73;;
6533;SDS011;3300;42.698;23.332;2023-08-08T03:07:33;2.90;;;2.70;;
6533;SDS011;3300;42.698;23.332;2023-08-08T03:10:00;2.70;;;2.50;;
6533;SDS011;3300;42.698;23.332;2023-08-08T03:12:27;3.03;;;2.80;;
6533;SDS011;3300;42.698;23.332;2023-08-08T03:14:54;2.70;;;2.50;;
6533;SDS011;3300;42.698;23.332;2023-08-08T03:17:21;3.33;;;3.00;;
6533;SDS011;3300;42.698;23.332;2023-08-08T03:19:48;3.03;;;2.73;;
6533;SDS011;3300;42.698;23.332;2023-08-08T03:22:15;2.80;;;2.60;;
6533;SDS011;3300;42.698;23.332;2023-08-08T03:24:43;3.00;;;2.70;;
6533;SDS011;3300;42.698;23.332;2023-08-08T03:27:10;2.90;;;2.70;;
6533;SDS011;3300;42.698;23.332;2023-08-08T03:29:36;2.60;;;2.40;;
6533;SDS011;3300;42.698;23.332;2023-08-08T03:32:03;2.80;;;2.60;;
6533;SDS011;3300;42.698;23.332;2023-08-08T03:34:30;2.80;;;2.60;;
6533;SDS011;3300;42.698;23.332;2023-08-08T03:36:57;2.97;;;2.77;;
6533;SDS011;3300;42.698;23.332;2023-08-08T03:39:24;2.90;;;2.60;;
6533;SDS011;3300;42.698;23.332;2023-08-08T03:41:53;2.83;;;2.63;;
6533;SDS011;3300;42.698;23.332;2023-08-08T03:44:19;2.73;;;2.53;;
6533;SDS011;3300;42.698;23.332;2023-08-08T03:46:46;2.63;;;2.43;;
6533;SDS011;3300;42.698;23.332;2023-08-08T03:49:13;2.90;;;2.70;;
6533;SDS011;3300;42.698;23.332;2023-08-08T03:51:39;2.73;;;2.50;;
6533;SDS011;3300;42.698;23.332;2023-08-08T03:54:06;3.27;;;2.53;;
6533;SDS011;3300;42.698;23.332;2023-08-08T03:56:33;2.63;;;2.43;;
6533;SDS011;3300;42.698;23.332;2023-08-08T03:59:01;2.70;;;2.50;;
6533;SDS011;3300;42.698;23.332;2023-08-08T04:01:28;3.17;;;2.93;;
6533;SDS011;3300;42.698;23.332;2023-08-08T04:03:55;2.63;;;2.43;;
6533;SDS011;3300;42.698;23.332;2023-08-08T04:06:21;2.90;;;2.70;;
6533;SDS011;3300;42.698;23.332;2023-08-08T04:08:48;2.80;;;2.60;;
6533;SDS011;3300;42.698;23.332;2023-08-08T04:11:15;3.03;;;2.70;;
6533;SDS011;3300;42.698;23.332;2023-08-08T04:13:41;2.40;;;2.20;;
6533;SDS011;3300;42.698;23.332;2023-08-08T04:16:10;3.03;;;2.73;;
6533;SDS011;3300;42.698;23.332;2023-08-08T04:18:36;2.70;;;2.50;;
6533;SDS011;3300;42.698;23.332;2023-08-08T04:21:03;2.80;;;2.60;;
6533;SDS011;3300;42.698;23.332;2023-08-08T04:23:30;2.97;;;2.70;;
6533;SDS011;3300;42.698;23.332;2023-08-08T04:25:56;2.83;;;2.63;;
6533;SDS011;3300;42.698;23.332;2023-08-08T04:28:23;2.70;;;2.50;;
6533;SDS011;3300;42.698;23.332;2023-08-08T04:30:50;2.80;;;2.60;;
6533;SDS011;3300;42.698;23.332;2023-08-08T04:33:18;3.33;;;3.00;;
6533;SDS011;3300;42.698;23.332;2023-08-08T04:35:44;3.10;;;2.80;;
6533;SDS011;3300;42.698;23.332;2023-08-08T04:38:13;2.90;;;2.70;;
6533;SDS011;3300;42.698;23.332;2023-08-08T04:40:40;3.00;;;2.70;;
6533;SDS011;3300;42.698;23.332;2023-08-08T04:43:07;2.90;;;2.70;;
6533;SDS011;3300;42.698;23.332;2023-08-08T04:45:33;2.67;;;2.47;;
6533;SDS011;3300;42.698;23.332;2023-08-08T04:48:00;2.93;;;2.73;;
6533;SDS011;3300;42.698;23.332;2023-08-08T04:50:28;2.83;;;2.63;;
6533;SDS011;3300;42.698;23.332;2023-08-08T04:52:55;2.73;;;2.53;;
6533;SDS011;3300;42.698;23.332;2023-08-08T04:55:22;3.03;;;2.73;;
6533;SDS011;3300;42.698;23.332;2023-08-08T04:57:48;2.90;;;2.70;;
6533;SDS011;3300;42.698;23.332;2023-08-08T05:00:15;2.90;;;2.60;;
6533;SDS011;3300;42.698;23.332;2023-08-08T05:02:42;2.77;;;2.57;;
6533;SDS011;3300;42.698;23.332;2023-08-08T05:05:09;2.47;;;2.27;;
6533;SDS011;3300;42.698;23.332;2023-08-08T05:07:37;2.70;;;2.50;;
6533;SDS011;3300;42.698;23.332;2023-08-08T05:10:04;3.00;;;2.70;;
6533;SDS011;3300;42.698;23.332;2023-08-08T05:12:31;3.13;;;2.80;;
6533;SDS011;3300;42.698;23.332;2023-08-08T05:14:58;2.90;;;2.70;;
6533;SDS011;3300;42.698;23.332;2023-08-08T05:17:25;2.80;;;2.60;;
6533;SDS011;3300;42.698;23.332;2023-08-08T05:19:52;3.07;;;2.77;;
6533;SDS011;3300;42.698;23.332;2023-08-08T05:22:18;2.80;;;2.60;;
6533;SDS011;3300;42.698;23.332;2023-08-08T05:24:46;2.60;;;2.40;;
6533;SDS011;3300;42.698;23.332;2023-08-08T05:27:13;3.00;;;2.70;;
6533;SDS011;3300;42.698;23.332;2023-08-08T05:29:40;3.10;;;2.80;;
6533;SDS011;3300;42.698;23.332;2023-08-08T05:32:07;2.70;;;2.50;;
6533;SDS011;3300;42.698;23.332;2023-08-08T05:34:34;2.70;;;2.50;;
6533;SDS011;3300;42.698;23.332;2023-08-08T05:37:01;2.80;;;2.60;;
6533;SDS011;3300;42.698;23.332;2023-08-08T05:39:29;2.90;;;2.70;;
6533;SDS011;3300;42.698;23.332;2023-08-08T05:41:57;2.90;;;2.70;;
6533;SDS011;3300;42.698;23.332;2023-08-08T05:44:24;3.30;;;3.00;;
6533;SDS011;3300;42.698;23.332;2023-08-08T05:46:50;3.30;;;3.00;;
6533;SDS011;3300;42.698;23.332;2023-08-08T05:49:17;3.20;;;2.80;;
6533;SDS011;3300;42.698;23.332;2023-08-08T05:51:44;2.90;;;2.70;;
6533;SDS011;3300;42.698;23.332;2023-08-08T05:54:11;2.90;;;2.70;;
6533;SDS011;3300;42.698;23.332;2023-08-08T05:56:37;2.70;;;2.50;;
6533;SDS011;3300;42.698;23.332;2023-08-08T05:59:06;3.10;;;2.80;;
6533;SDS011;3300;42.698;23.332;2023-08-08T06:01:34;3.00;;;2.80;;
6533;SDS011;3300;42.698;23.332;2023-08-08T06:04:00;2.70;;;2.50;;
6533;SDS011;3300;42.698;23.332;2023-08-08T06:06:28;2.90;;;2.70;;
6533;SDS011;3300;42.698;23.332;2023-08-08T06:08:55;2.70;;;2.50;;
6533;SDS011;3300;42.698;23.332;2023-08-08T06:11:22;3.17;;;2.80;;
6533;SDS011;3300;42.698;23.332;2023-08-08T06:13:48;2.67;;;2.40;;
6533;SDS011;3300;42.698;23.332;2023-08-08T06:16:16;3.10;;;2.90;;
6533;SDS011;3300;42.698;23.332;2023-08-08T06:18:43;2.80;;;2.60;;
6533;SDS011;3300;42.698;23.332;2023-08-08T06:21:10;3.20;;;2.90;;
6533;SDS011;3300;42.698;23.332;2023-08-08T06:23:37;2.80;;;2.60;;
6533;SDS011;3300;42.698;23.332;2023-08-08T06:26:04;2.83;;;2.60;;
6533;SDS011;3300;42.698;23.332;2023-08-08T06:28:30;2.97;;;2.77;;
6533;SDS011;3300;42.698;23.332;2023-08-08T06:30:57;3.10;;;2.80;;
6533;SDS011;3300;42.698;23.332;2023-08-08T06:33:26;2.80;;;2.60;;
6533;SDS011;3300;42.698;23.332;2023-08-08T06:35:53;3.30;;;3.00;;
6533;SDS011;3300;42.698;23.332;2023-08-08T06:38:20;3.07;;;2.83;;
6533;SDS011;3300;42.698;23.332;2023-08-08T06:40:47;2.73;;;2.53;;
6533;SDS011;3300;42.698;23.332;2023-08-08T06:43:14;4.50;;;2.70;;
6533;SDS011;3300;42.698;23.332;2023-08-08T06:45:41;3.27;;;2.63;;
6533;SDS011;3300;42.698;23.332;2023-08-08T06:48:08;3.17;;;2.87;;
6533;SDS011;3300;42.698;23.332;2023-08-08T06:50:36;3.30;;;3.00;;
6533;SDS011;3300;42.698;23.332;2023-08-08T06:53:03;3.17;;;2.87;;
6533;SDS011;3300;42.698;23.332;2023-08-08T06:55:31;3.03;;;2.83;;
6533;SDS011;3300;42.698;23.332;2023-08-08T06:57:58;3.30;;;3.00;;
6533;SDS011;3300;42.698;23.332;2023-08-08T07:00:25;3.37;;;3.07;;
6533;SDS011;3300;42.698;23.332;2023-08-08T07:02:53;2.93;;;2.67;;
6533;SDS011;3300;42.698;23.332;2023-08-08T07:05:19;4.10;;;3.20;;
6533;SDS011;3300;42.698;23.332;2023-08-08T07:07:48;3.30;;;3.00;;
6533;SDS011;3300;42.698;23.332;2023-08-08T07:10:15;3.40;;;3.10;;
6533;SDS011;3300;42.698;23.332;2023-08-08T07:12:42;3.50;;;3.20;;
6533;SDS011;3300;42.698;23.332;2023-08-08T07:15:09;3.23;;;2.93;;
6533;SDS011;3300;42.698;23.332;2023-08-08T07:17:36;3.10;;;2.80;;
6533;SDS011;3300;42.698;23.332;2023-08-08T07:20:04;3.57;;;3.20;;
6533;SDS011;3300;42.698;23.332;2023-08-08T07:22:32;3.50;;;3.20;;
6533;SDS011;3300;42.698;23.332;2023-08-08T07:25:00;3.47;;;3.17;;
6533;SDS011;3300;42.698;23.332;2023-08-08T07:27:28;3.50;;;3.20;;
6533;SDS011;3300;42.698;23.332;2023-08-08T07:29:54;3.67;;;3.37;;
6533;SDS011;3300;42.698;23.332;2023-08-08T07:32:21;3.70;;;3.40;;
6533;SDS011;3300;42.698;23.332;2023-08-08T07:34:48;3.27;;;3.07;;
6533;SDS011;3300;42.698;23.332;2023-08-08T07:37:15;3.03;;;2.83;;
6533;SDS011;3300;42.698;23.332;2023-08-08T07:39:41;3.57;;;3.27;;
6533;SDS011;3300;42.698;23.332;2023-08-08T07:42:09;3.23;;;2.93;;
6533;SDS011;3300;42.698;23.332;2023-08-08T07:44:36;3.37;;;3.07;;
6533;SDS011;3300;42.698;23.332;2023-08-08T07:47:04;3.50;;;3.20;;
6533;SDS011;3300;42.698;23.332;2023-08-08T07:49:31;3.40;;;3.10;;
6533;SDS011;3300;42.698;23.332;2023-08-08T07:51:57;3.70;;;3.40;;
6533;SDS011;3300;42.698;23.332;2023-08-08T07:54:24;3.50;;;3.20;;
6533;SDS011;3300;42.698;23.332;2023-08-08T07:56:51;3.87;;;2.97;;
6533;SDS011;3300;42.698;23.332;2023-08-08T07:59:19;3.60;;;3.30;;
6533;SDS011;3300;42.698;23.332;2023-08-08T08:01:46;3.43;;;3.13;;
6533;SDS011;3300;42.698;23.332;2023-08-08T08:04:12;3.80;;;3.50;;
6533;SDS011;3300;42.698;23.332;2023-08-08T08:06:39;3.70;;;3.40;;
6533;SDS011;3300;42.698;23.332;2023-08-08T08:09:06;3.67;;;3.37;;
6533;SDS011;3300;42.698;23.332;2023-08-08T08:11:33;3.50;;;3.20;;
6533;SDS011;3300;42.698;23.332;2023-08-08T08:13:59;3.60;;;3.30;;
6533;SDS011;3300;42.698;23.332;2023-08-08T08:16:27;3.70;;;3.40;;
6533;SDS011;3300;42.698;23.332;2023-08-08T08:18:54;3.70;;;3.40;;
6533;SDS011;3300;42.698;23.332;2023-08-08T08:21:21;3.80;;;3.50;;
6533;SDS011;3300;42.698;23.332;2023-08-08T08:23:48;3.73;;;3.43;;
6533;SDS011;3300;42.698;23.332;2023-08-08T08:26:15;3.70;;;3.40;;
6533;SDS011;3300;42.698;23.332;2023-08-08T08:28:41;3.67;;;3.37;;
6533;SDS011;3300;42.698;23.332;2023-08-08T08:31:08;3.63;;;3.33;;
6533;SDS011;3300;42.698;23.332;2023-08-08T08:33:36;3.70;;;3.33;;
6533;SDS011;3300;42.698;23.332;2023-08-08T08:36:03;3.60;;;3.30;;
6533;SDS011;3300;42.698;23.332;2023-08-08T08:38:30;4.27;;;3.50;;
6533;SDS011;3300;42.698;23.332;2023-08-08T08:40:57;4.47;;;3.70;;
6533;SDS011;3300;42.698;23.332;2023-08-08T08:43:24;3.70;;;3.37;;
6533;SDS011;3300;42.698;23.332;2023-08-08T08:45:52;3.70;;;3.40;;
6533;SDS011;3300;42.698;23.332;2023-08-08T08:48:20;3.70;;;3.30;;
6533;SDS011;3300;42.698;23.332;2023-08-08T08:50:49;3.90;;;3.60;;
6533;SDS011;3300;42.698;23.332;2023-08-08T08:53:17;3.73;;;3.43;;
6533;SDS011;3300;42.698;23.332;2023-08-08T08:55:43;3.73;;;3.43;;
6533;SDS011;3300;42.698;23.332;2023-08-08T08:58:12;5.60;;;3.73;;
6533;SDS011;3300;42.698;23.332;2023-08-08T09:00:40;4.17;;;3.30;;
6533;SDS011;3300;42.698;23.332;2023-08-08T09:03:08;4.00;;;3.70;;
6533;SDS011;3300;42.698;23.332;2023-08-08T09:05:35;3.80;;;3.50;;
6533;SDS011;3300;42.698;23.332;2023-08-08T09:08:04;3.63;;;3.33;;
6533;SDS011;3300;42.698;23.332;2023-08-08T09:10:32;3.87;;;3.57;;
6533;SDS011;3300;42.698;23.332;2023-08-08T09:13:00;3.97;;;3.57;;
6533;SDS011;3300;42.698;23.332;2023-08-08T09:15:29;3.50;;;3.20;;
6533;SDS011;3300;42.698;23.332;2023-08-08T09:17:56;3.60;;;3.30;;
6533;SDS011;3300;42.698;23.332;2023-08-08T09:20:25;3.87;;;3.50;;
6533;SDS011;3300;42.698;23.332;2023-08-08T09:22:53;3.70;;;3.40;;
6533;SDS011;3300;42.698;23.332;2023-08-08T09:25:21;4.67;;;3.70;;
6533;SDS011;3300;42.698;23.332;2023-08-08T09:27:48;3.97;;;3.67;;
6533;SDS011;3300;42.698;23.332;2023-08-08T09:30:16;4.03;;;3.63;;
6533;SDS011;3300;42.698;23.332;2023-08-08T09:32:43;4.07;;;3.67;;
6533;SDS011;3300;42.698;23.332;2023-08-08T09:35:10;3.83;;;3.53;;
6533;SDS011;3300;42.698;23.332;2023-08-08T09:37:38;4.03;;;3.67;;
6533;SDS011;3300;42.698;23.332;2023-08-08T09:40:05;4.40;;;3.80;;
6533;SDS011;3300;42.698;23.332;2023-08-08T09:42:37;4.73;;;3.73;;
6533;SDS011;3300;42.698;23.332;2023-08-08T09:45:07;3.97;;;3.67;;
6533;SDS011;3300;42.698;23.332;2023-08-08T09:47:35;4.10;;;3.80;;
6533;SDS011;3300;42.698;23.332;2023-08-08T09:50:04;4.73;;;3.70;;
6533;SDS011;3300;42.698;23.332;2023-08-08T09:52:31;4.30;;;3.90;;
6533;SDS011;3300;42.698;23.332;2023-08-08T09:55:00;4.07;;;3.77;;
6533;SDS011;3300;42.698;23.332;2023-08-08T09:57:26;4.23;;;3.60;;
6533;SDS011;3300;42.698;23.332;2023-08-08T09:59:54;3.90;;;3.60;;
6533;SDS011;3300;42.698;23.332;2023-08-08T10:02:22;3.93;;;3.63;;
6533;SDS011;3300;42.698;23.332;2023-08-08T10:04:48;3.80;;;3.43;;
6533;SDS011;3300;42.698;23.332;2023-08-08T10:07:16;3.80;;;3.40;;
6533;SDS011;3300;42.698;23.332;2023-08-08T10:09:43;3.97;;;3.63;;
6533;SDS011;3300;42.698;23.332;2023-08-08T10:12:10;4.17;;;3.77;;
6533;SDS011;3300;42.698;23.332;2023-08-08T10:14:37;4.20;;;3.80;;
6533;SDS011;3300;42.698;23.332;2023-08-08T10:17:12;4.50;;;3.90;;
6533;SDS011;3300;42.698;23.332;2023-08-08T10:19:39;5.00;;;3.77;;
6533;SDS011;3300;42.698;23.332;2023-08-08T10:22:06;4.40;;;3.93;;
6533;SDS011;3300;42.698;23.332;2023-08-08T10:24:35;4.13;;;3.80;;
6533;SDS011;3300;42.698;23.332;2023-08-08T10:27:02;4.37;;;3.97;;
6533;SDS011;3300;42.698;23.332;2023-08-08T10:29:30;4.30;;;3.90;;
6533;SDS011;3300;42.698;23.332;2023-08-08T10:31:58;4.23;;;3.83;;
6533;SDS011;3300;42.698;23.332;2023-08-08T10:34:36;4.50;;;4.10;;
6533;SDS011;3300;42.698;23.332;2023-08-08T10:37:04;4.17;;;3.77;;
6533;SDS011;3300;42.698;23.332;2023-08-08T10:39:31;4.50;;;4.10;;
6533;SDS011;3300;42.698;23.332;2023-08-08T10:42:00;4.20;;;3.80;;
6533;SDS011;3300;42.698;23.332;2023-08-08T10:44:29;4.50;;;4.10;;
6533;SDS011;3300;42.698;23.332;2023-08-08T10:46:59;4.10;;;3.80;;
6533;SDS011;3300;42.698;23.332;2023-08-08T10:49:28;4.40;;;4.00;;
6533;SDS011;3300;42.698;23.332;2023-08-08T10:52:01;4.70;;;4.30;;
6533;SDS011;3300;42.698;23.332;2023-08-08T10:54:29;4.20;;;3.80;;
6533;SDS011;3300;42.698;23.332;2023-08-08T10:56:57;4.80;;;4.30;;
6533;SDS011;3300;42.698;23.332;2023-08-08T10:59:25;4.87;;;4.37;;
6533;SDS011;3300;42.698;23.332;2023-08-08T11:01:54;4.50;;;4.10;;
6533;SDS011;3300;42.698;23.332;2023-08-08T11:04:22;4.50;;;4.10;;
6533;SDS011;3300;42.698;23.332;2023-08-08T11:06:53;4.77;;;4.37;;
6533;SDS011;3300;42.698;23.332;2023-08-08T11:09:20;4.50;;;4.10;;
6533;SDS011;3300;42.698;23.332;2023-08-08T11:11:47;4.40;;;4.00;;
6533;SDS011;3300;42.698;23.332;2023-08-08T11:14:14;4.70;;;4.20;;
6533;SDS011;3300;42.698;23.332;2023-08-08T11:16:42;5.63;;;4.13;;
6533;SDS011;3300;42.698;23.332;2023-08-08T11:19:10;4.60;;;4.20;;
6533;SDS011;3300;42.698;23.332;2023-08-08T11:21:39;4.87;;;4.47;;
6533;SDS011;3300;42.698;23.332;2023-08-08T11:24:08;4.83;;;4.43;;
6533;SDS011;3300;42.698;23.332;2023-08-08T11:26:35;4.53;;;4.13;;
6533;SDS011;3300;42.698;23.332;2023-08-08T11:29:03;4.40;;;4.00;;
6533;SDS011;3300;42.698;23.332;2023-08-08T11:31:31;4.63;;;4.23;;
6533;SDS011;3300;42.698;23.332;2023-08-08T11:33:59;4.80;;;4.30;;
6533;SDS011;3300;42.698;23.332;2023-08-08T11:36:28;4.53;;;4.13;;
6533;SDS011;3300;42.698;23.332;2023-08-08T11:38:56;4.70;;;4.30;;
6533;SDS011;3300;42.698;23.332;2023-08-08T11:41:25;4.53;;;4.13;;
6533;SDS011;3300;42.698;23.332;2023-08-08T11:43:52;4.50;;;4.10;;
6533;SDS011;3300;42.698;23.332;2023-08-08T11:46:22;4.50;;;4.10;;
6533;SDS011;3300;42.698;23.332;2023-08-08T11:48:50;4.40;;;4.00;;
6533;SDS011;3300;42.698;23.332;2023-08-08T11:51:17;4.57;;;4.17;;
6533;SDS011;3300;42.698;23.332;2023-08-08T11:53:50;4.77;;;4.30;;
6533;SDS011;3300;42.698;23.332;2023-08-08T11:56:18;4.47;;;4.07;;
6533;SDS011;3300;42.698;23.332;2023-08-08T11:58:47;4.77;;;4.03;;
6533;SDS011;3300;42.698;23.332;2023-08-08T12:01:15;4.17;;;3.87;;
6533;SDS011;3300;42.698;23.332;2023-08-08T12:03:42;4.43;;;4.03;;
6533;SDS011;3300;42.698;23.332;2023-08-08T12:06:12;4.30;;;3.90;;
6533;SDS011;3300;42.698;23.332;2023-08-08T12:08:40;4.30;;;3.90;;
6533;SDS011;3300;42.698;23.332;2023-08-08T12:11:08;4.43;;;4.03;;
6533;SDS011;3300;42.698;23.332;2023-08-08T12:13:36;4.30;;;4.00;;
6533;SDS011;3300;42.698;23.332;2023-08-08T12:16:06;4.87;;;4.43;;
6533;SDS011;3300;42.698;23.332;2023-08-08T12:18:34;4.50;;;4.10;;
6533;SDS011;3300;42.698;23.332;2023-08-08T12:21:03;4.80;;;4.40;;
6533;SDS011;3300;42.698;23.332;2023-08-08T12:23:29;4.77;;;4.37;;
6533;SDS011;3300;42.698;23.332;2023-08-08T12:25:57;4.40;;;4.00;;
6533;SDS011;3300;42.698;23.332;2023-08-08T12:28:24;4.67;;;4.27;;
6533;SDS011;3300;42.698;23.332;2023-08-08T12:30:51;4.30;;;4.00;;
6533;SDS011;3300;42.698;23.332;2023-08-08T12:33:19;4.57;;;4.17;;
6533;SDS011;3300;42.698;23.332;2023-08-08T12:35:46;4.63;;;4.23;;
6533;SDS011;3300;42.698;23.332;2023-08-08T12:38:13;4.50;;;4.10;;
6533;SDS011;3300;42.698;23.332;2023-08-08T12:40:40;5.03;;;4.37;;
6533;SDS011;3300;42.698;23.332;2023-08-08T12:43:08;4.77;;;4.37;;
6533;SDS011;3300;42.698;23.332;2023-08-08T12:45:36;6.07;;;4.53;;
6533;SDS011;3300;42.698;23.332;2023-08-08T12:48:02;4.80;;;4.40;;
6533;SDS011;3300;42.698;23.332;2023-08-08T12:50:31;4.73;;;4.33;;
6533;SDS011;3300;42.698;23.332;2023-08-08T12:52:58;4.73;;;4.27;;
6533;SDS011;3300;42.698;23.332;2023-08-08T12:55:24;4.70;;;4.30;;
6533;SDS011;3300;42.698;23.332;2023-08-08T12:57:51;4.70;;;4.30;;
6533;SDS011;3300;42.698;23.332;2023-08-08T13:00:18;4.50;;;4.10;;
6533;SDS011;3300;42.698;23.332;2023-08-08T13:02:45;4.63;;;4.17;;
6533;SDS011;3300;42.698;23.332;2023-08-08T13:05:12;4.77;;;4.37;;
6533;SDS011;3300;42.698;23.332;2023-08-08T13:07:40;4.60;;;4.20;;
6533;SDS011;3300;42.698;23.332;2023-08-08T13:10:07;4.70;;;4.30;;
6533;SDS011;3300;42.698;23.332;2023-08-08T13:12:35;4.87;;;4.47;;
6533;SDS011;3300;42.698;23.332;2023-08-08T13:15:02;4.90;;;4.50;;
6533;SDS011;3300;42.698;23.332;2023-08-08T13:17:29;5.00;;;4.60;;
6533;SDS011;3300;42.698;23.332;2023-08-08T13:19:56;4.80;;;4.30;;
6533;SDS011;3300;42.698;23.332;2023-08-08T13:22:23;5.10;;;4.60;;
6533;SDS011;3300;42.698;23.332;2023-08-08T13:24:51;5.30;;;4.80;;
6533;SDS011;3300;42.698;23.332;2023-08-08T13:27:18;5.30;;;4.87;;
6533;SDS011;3300;42.698;23.332;2023-08-08T13:29:44;5.67;;;4.90;;
6533;SDS011;3300;42.698;23.332;2023-08-08T13:32:11;5.50;;;4.87;;
6533;SDS011;3300;42.698;23.332;2023-08-08T13:34:40;5.30;;;4.80;;
6533;SDS011;3300;42.698;23.332;2023-08-08T13:37:07;5.30;;;4.90;;
6533;SDS011;3300;42.698;23.332;2023-08-08T13:39:34;5.37;;;4.87;;
6533;SDS011;3300;42.698;23.332;2023-08-08T13:42:02;5.27;;;4.80;;
6533;SDS011;3300;42.698;23.332;2023-08-08T13:44:29;5.80;;;4.67;;
6533;SDS011;3300;42.698;23.332;2023-08-08T13:46:56;5.10;;;4.70;;
6533;SDS011;3300;42.698;23.332;2023-08-08T13:49:23;7.23;;;4.87;;
6533;SDS011;3300;42.698;23.332;2023-08-08T13:51:51;5.00;;;4.60;;
6533;SDS011;3300;42.698;23.332;2023-08-08T13:54:18;5.30;;;4.80;;
6533;SDS011;3300;42.698;23.332;2023-08-08T13:56:45;5.20;;;4.80;;
6533;SDS011;3300;42.698;23.332;2023-08-08T13:59:13;5.53;;;5.03;;
6533;SDS011;3300;42.698;23.332;2023-08-08T14:01:40;5.40;;;4.90;;
6533;SDS011;3300;42.698;23.332;2023-08-08T14:04:07;5.70;;;5.10;;
6533;SDS011;3300;42.698;23.332;2023-08-08T14:06:33;5.20;;;4.80;;
6533;SDS011;3300;42.698;23.332;2023-08-08T14:09:00;5.63;;;5.13;;
6533;SDS011;3300;42.698;23.332;2023-08-08T14:11:27;5.50;;;5.00;;
6533;SDS011;3300;42.698;23.332;2023-08-08T14:13:53;5.43;;;4.93;;
6533;SDS011;3300;42.698;23.332;2023-08-08T14:16:21;5.50;;;5.00;;
6533;SDS011;3300;42.698;23.332;2023-08-08T14:18:48;5.60;;;5.10;;
6533;SDS011;3300;42.698;23.332;2023-08-08T14:21:15;5.50;;;5.00;;
6533;SDS011;3300;42.698;23.332;2023-08-08T14:23:41;4.97;;;4.57;;
6533;SDS011;3300;42.698;23.332;2023-08-08T14:26:09;5.60;;;5.10;;
6533;SDS011;3300;42.698;23.332;2023-08-08T14:28:36;5.73;;;5.23;;
6533;SDS011;3300;42.698;23.332;2023-08-08T14:31:03;5.17;;;4.67;;
6533;SDS011;3300;42.698;23.332;2023-08-08T14:33:32;5.40;;;4.90;;
6533;SDS011;3300;42.698;23.332;2023-08-08T14:35:59;5.20;;;4.73;;
6533;SDS011;3300;42.698;23.332;2023-08-08T14:38:26;5.67;;;5.00;;
6533;SDS011;3300;42.698;23.332;2023-08-08T14:40:53;5.70;;;5.20;;
6533;SDS011;3300;42.698;23.332;2023-08-08T14:43:19;5.87;;;5.37;;
6533;SDS011;3300;42.698;23.332;2023-08-08T14:45:48;5.80;;;5.30;;
6533;SDS011;3300;42.698;23.332;2023-08-08T14:48:15;5.20;;;4.80;;
6533;SDS011;3300;42.698;23.332;2023-08-08T14:50:43;5.60;;;5.10;;
6533;SDS011;3300;42.698;23.332;2023-08-08T14:53:10;5.07;;;4.67;;
6533;SDS011;3300;42.698;23.332;2023-08-08T14:55:36;5.30;;;4.80;;
6533;SDS011;3300;42.698;23.332;2023-08-08T14:58:03;5.63;;;5.13;;
6533;SDS011;3300;42.698;23.332;2023-08-08T15:00:30;5.20;;;4.80;;